createdAt,value
2018-12-24T00:00:45.415Z,991.45
2018-12-24T00:01:45.550Z,991.39
2018-12-24T00:02:45.487Z,991.36
2018-12-24T00:03:45.525Z,991.26
2018-12-24T00:04:45.568Z,991.29
2018-12-24T00:05:45.645Z,991.21
2018-12-24T00:06:45.634Z,991.22
2018-12-24T00:07:45.670Z,991.36
2018-12-24T00:08:45.707Z,991.41
2018-12-24T00:09:45.743Z,991.42
2018-12-24T00:10:45.778Z,991.33
2018-12-24T00:11:45.815Z,991.34
2018-12-24T00:12:45.852Z,991.30
2018-12-24T00:13:45.891Z,991.35
2018-12-24T00:14:45.936Z,991.38
2018-12-24T00:15:45.964Z,991.38
2018-12-24T00:16:45.998Z,991.43
2018-12-24T00:17:46.034Z,991.48
2018-12-24T00:18:46.076Z,991.47
2018-12-24T00:19:46.116Z,991.51
2018-12-24T00:20:46.152Z,991.52
2018-12-24T00:21:46.180Z,991.53
2018-12-24T00:22:46.217Z,991.56
2018-12-24T00:23:46.254Z,991.57
2018-12-24T00:24:46.289Z,991.66
2018-12-24T00:25:46.325Z,991.71
2018-12-24T00:26:46.369Z,991.73
2018-12-24T00:27:46.398Z,991.72
2018-12-24T00:28:46.434Z,991.69
2018-12-24T00:29:46.471Z,991.77
2018-12-24T00:30:46.507Z,991.77
2018-12-24T00:31:46.547Z,991.76
2018-12-24T00:32:46.582Z,991.77
2018-12-24T00:33:46.617Z,991.80
2018-12-24T00:34:46.660Z,991.89
2018-12-24T00:35:46.691Z,991.98
2018-12-24T00:36:46.727Z,992.04
2018-12-24T00:37:46.769Z,992.08
2018-12-24T00:38:46.800Z,992.08
2018-12-24T00:39:46.836Z,992.00
2018-12-24T00:40:46.872Z,992.00
2018-12-24T00:41:46.908Z,992.02
2018-12-24T00:42:46.953Z,992.07
2018-12-24T00:43:46.992Z,992.15
2018-12-24T00:44:47.027Z,992.22
2018-12-24T00:45:47.057Z,992.23
2018-12-24T00:46:47.101Z,992.25
2018-12-24T00:47:47.130Z,992.25
2018-12-24T00:48:47.166Z,992.24
2018-12-24T00:49:47.201Z,992.21
2018-12-24T00:50:47.238Z,992.23
2018-12-24T00:51:47.275Z,992.21
2018-12-24T00:52:47.312Z,992.17
2018-12-24T00:53:47.347Z,992.20
2018-12-24T00:54:47.381Z,992.14
2018-12-24T00:55:47.419Z,992.16
2018-12-24T00:56:47.472Z,992.25
2018-12-24T00:57:47.491Z,992.25
2018-12-24T00:58:47.528Z,992.33
2018-12-24T00:59:47.564Z,992.33
2018-12-24T01:00:47.607Z,992.34
2018-12-24T01:01:48.929Z,992.40
2018-12-24T01:02:47.672Z,992.41
2018-12-24T01:03:47.709Z,992.45
2018-12-24T01:04:47.745Z,992.51
2018-12-24T01:05:47.781Z,992.51
2018-12-24T01:06:47.819Z,992.59
2018-12-24T01:07:47.854Z,992.58
2018-12-24T01:08:47.890Z,992.67
2018-12-24T01:09:47.931Z,992.68
2018-12-24T01:10:47.964Z,992.62
2018-12-24T01:11:48.001Z,992.57
2018-12-24T01:12:48.037Z,992.61
2018-12-24T01:13:48.074Z,992.56
2018-12-24T01:14:48.112Z,992.52
2018-12-24T01:15:48.163Z,992.56
2018-12-24T01:16:48.181Z,992.56
2018-12-24T01:17:48.218Z,992.62
2018-12-24T01:18:48.255Z,992.71
2018-12-24T01:19:48.300Z,992.73
2018-12-24T01:20:48.327Z,992.80
2018-12-24T01:21:48.366Z,992.78
2018-12-24T01:22:48.401Z,992.88
2018-12-24T01:23:48.437Z,992.91
2018-12-24T01:24:48.536Z,992.90
2018-12-24T01:25:48.510Z,992.94
2018-12-24T01:26:48.548Z,992.98
2018-12-24T01:27:48.583Z,993.00
2018-12-24T01:28:48.618Z,993.08
2018-12-24T01:29:48.655Z,993.11
2018-12-24T01:30:48.693Z,993.13
2018-12-24T01:31:48.728Z,993.12
2018-12-24T01:32:48.764Z,993.13
2018-12-24T01:33:48.808Z,993.20
2018-12-24T01:34:48.837Z,993.27
2018-12-24T01:35:48.873Z,993.32
2018-12-24T01:36:48.907Z,993.29
2018-12-24T01:37:48.945Z,993.31
2018-12-24T01:38:49.083Z,993.35
2018-12-24T01:39:49.020Z,993.36
2018-12-24T01:40:49.063Z,993.35
2018-12-24T01:41:49.091Z,993.39
2018-12-24T01:42:49.128Z,993.45
2018-12-24T01:43:49.165Z,993.53
2018-12-24T01:44:49.199Z,993.60
2018-12-24T01:45:49.234Z,993.59
2018-12-24T01:46:49.273Z,993.50
2018-12-24T01:47:49.308Z,993.47
2018-12-24T01:48:49.346Z,993.45
2018-12-24T01:49:49.384Z,993.48
2018-12-24T01:50:49.419Z,993.51
2018-12-24T01:51:49.458Z,993.53
2018-12-24T01:52:49.498Z,993.56
2018-12-24T01:53:49.529Z,993.59
2018-12-24T01:54:49.564Z,993.60
2018-12-24T01:55:49.602Z,993.57
2018-12-24T01:56:49.641Z,993.64
2018-12-24T01:57:49.684Z,993.75
2018-12-24T01:58:49.709Z,993.76
2018-12-24T01:59:49.744Z,993.83
2018-12-24T02:00:49.779Z,993.88
2018-12-24T02:01:49.827Z,993.89
2018-12-24T02:02:49.852Z,993.93
2018-12-24T02:03:49.889Z,994.01
2018-12-24T02:04:49.924Z,993.98
2018-12-24T02:05:49.960Z,994.03
2018-12-24T02:06:49.997Z,994.09
2018-12-24T02:07:50.033Z,994.07
2018-12-24T02:08:50.068Z,994.09
2018-12-24T02:09:50.106Z,994.06
2018-12-24T02:10:50.143Z,994.08
2018-12-24T02:11:50.187Z,994.12
2018-12-24T02:12:50.214Z,994.14
2018-12-24T02:13:50.249Z,994.18
2018-12-24T02:14:50.287Z,994.24
2018-12-24T02:15:50.334Z,994.23
2018-12-24T02:16:50.363Z,994.23
2018-12-24T02:17:50.402Z,994.27
2018-12-24T02:18:50.435Z,994.22
2018-12-24T02:19:50.469Z,994.23
2018-12-24T02:20:50.504Z,994.22
2018-12-24T02:21:50.539Z,994.26
2018-12-24T02:22:50.578Z,994.28
2018-12-24T02:23:50.621Z,994.28
2018-12-24T02:24:50.650Z,994.25
2018-12-24T02:25:50.686Z,994.32
2018-12-24T02:26:50.725Z,994.31
2018-12-24T02:27:50.763Z,994.34
2018-12-24T02:28:50.894Z,994.36
2018-12-24T02:29:50.839Z,994.37
2018-12-24T02:30:50.867Z,994.42
2018-12-24T02:31:50.905Z,994.51
2018-12-24T02:32:50.947Z,994.58
2018-12-24T02:33:50.974Z,994.53
2018-12-24T02:34:51.013Z,994.50
2018-12-24T02:35:51.201Z,994.52
2018-12-24T02:36:51.083Z,994.54
2018-12-24T02:37:51.121Z,994.53
2018-12-24T02:38:51.157Z,994.55
2018-12-24T02:39:51.192Z,994.54
2018-12-24T02:40:51.329Z,994.59
2018-12-24T02:41:51.265Z,994.56
2018-12-24T02:42:52.519Z,994.58
2018-12-24T02:43:51.339Z,994.63
2018-12-24T02:44:51.374Z,994.64
2018-12-24T02:45:51.413Z,994.64
2018-12-24T02:46:51.478Z,994.66
2018-12-24T02:47:51.483Z,994.64
2018-12-24T02:48:51.520Z,994.72
2018-12-24T02:49:51.555Z,994.74
2018-12-24T02:50:51.593Z,994.73
2018-12-24T02:51:51.628Z,994.76
2018-12-24T02:52:51.668Z,994.73
2018-12-24T02:53:51.709Z,994.76
2018-12-24T02:54:51.739Z,994.79
2018-12-24T02:55:51.774Z,994.78
2018-12-24T02:56:51.809Z,994.82
2018-12-24T02:57:51.847Z,994.86
2018-12-24T02:58:51.883Z,994.86
2018-12-24T02:59:51.918Z,994.90
2018-12-24T03:00:51.953Z,994.88
2018-12-24T03:01:52.002Z,994.94
2018-12-24T03:02:52.026Z,994.93
2018-12-24T03:03:52.062Z,994.96
2018-12-24T03:04:52.107Z,994.99
2018-12-24T03:05:52.138Z,995.03
2018-12-24T03:06:52.180Z,994.98
2018-12-24T03:07:52.207Z,994.97
2018-12-24T03:08:52.243Z,994.97
2018-12-24T03:09:52.278Z,995.02
2018-12-24T03:10:52.319Z,995.04
2018-12-24T03:11:52.352Z,995.10
2018-12-24T03:13:02.255Z,995.12
2018-12-24T03:13:52.425Z,995.16
2018-12-24T03:14:52.461Z,995.14
2018-12-24T03:15:52.498Z,995.12
2018-12-24T03:16:52.532Z,995.19
2018-12-24T03:17:52.572Z,995.17
2018-12-24T03:18:52.606Z,995.19
2018-12-24T03:19:52.642Z,995.17
2018-12-24T03:20:52.677Z,995.21
2018-12-24T03:21:52.717Z,995.16
2018-12-24T03:22:52.750Z,995.22
2018-12-24T03:23:52.788Z,995.23
2018-12-24T03:24:52.829Z,995.19
2018-12-24T03:25:52.978Z,995.25
2018-12-24T03:26:52.894Z,995.23
2018-12-24T03:27:52.940Z,995.26
2018-12-24T03:28:52.968Z,995.23
2018-12-24T03:29:53.004Z,995.25
2018-12-24T03:30:53.042Z,995.28
2018-12-24T03:31:53.097Z,995.29
2018-12-24T03:32:53.112Z,995.31
2018-12-24T03:33:53.152Z,995.34
2018-12-24T03:34:53.194Z,995.30
2018-12-24T03:35:53.221Z,995.35
2018-12-24T03:36:53.260Z,995.34
2018-12-24T03:37:53.296Z,995.36
2018-12-24T03:38:53.331Z,995.33
2018-12-24T03:39:53.367Z,995.36
2018-12-24T03:40:53.400Z,995.41
2018-12-24T03:41:53.437Z,995.37
2018-12-24T03:42:53.475Z,995.43
2018-12-24T03:43:53.509Z,995.36
2018-12-24T03:44:53.546Z,995.42
2018-12-24T03:45:53.584Z,995.42
2018-12-24T03:46:53.616Z,995.51
2018-12-24T03:47:53.653Z,995.51
2018-12-24T03:48:53.698Z,995.54
2018-12-24T03:49:53.726Z,995.55
2018-12-24T03:50:53.768Z,995.54
2018-12-24T03:51:53.798Z,995.57
2018-12-24T03:52:53.836Z,995.61
2018-12-24T03:53:53.871Z,995.64
2018-12-24T03:54:53.907Z,995.68
2018-12-24T03:55:53.943Z,995.65
2018-12-24T03:56:53.982Z,995.62
2018-12-24T03:57:54.014Z,995.61
2018-12-24T03:58:54.053Z,995.62
2018-12-24T03:59:54.087Z,995.59
2018-12-24T04:00:54.122Z,995.62
2018-12-24T04:01:54.156Z,995.70
2018-12-24T04:02:54.197Z,995.71
2018-12-24T04:03:54.235Z,995.74
2018-12-24T04:04:54.274Z,995.72
2018-12-24T04:05:54.310Z,995.78
2018-12-24T04:06:54.342Z,995.81
2018-12-24T04:07:54.378Z,995.84
2018-12-24T04:08:54.413Z,995.80
2018-12-24T04:09:54.456Z,995.84
2018-12-24T04:10:54.490Z,995.85
2018-12-24T04:11:54.522Z,995.86
2018-12-24T04:12:54.565Z,995.90
2018-12-24T04:13:54.591Z,995.92
2018-12-24T04:14:54.627Z,995.92
2018-12-24T04:15:54.665Z,995.97
2018-12-24T04:16:54.701Z,995.99
2018-12-24T04:17:54.736Z,995.98
2018-12-24T04:18:54.781Z,996.00
2018-12-24T04:19:54.816Z,995.99
2018-12-24T04:20:54.847Z,996.03
2018-12-24T04:21:54.881Z,996.10
2018-12-24T04:22:54.921Z,996.10
2018-12-24T04:23:54.956Z,996.15
2018-12-24T04:24:54.997Z,996.16
2018-12-24T04:25:55.025Z,996.20
2018-12-24T04:26:55.067Z,996.22
2018-12-24T04:27:55.098Z,996.22
2018-12-24T04:28:55.134Z,996.22
2018-12-24T04:29:55.171Z,996.23
2018-12-24T04:30:55.206Z,996.28
2018-12-24T04:31:55.244Z,996.34
2018-12-24T04:32:55.284Z,996.35
2018-12-24T04:33:55.318Z,996.34
2018-12-24T04:34:55.353Z,996.36
2018-12-24T04:35:55.536Z,996.41
2018-12-24T04:36:55.428Z,996.40
2018-12-24T04:37:55.460Z,996.39
2018-12-24T04:38:55.526Z,996.47
2018-12-24T04:39:55.540Z,996.52
2018-12-24T04:40:55.567Z,996.51
2018-12-24T04:41:55.605Z,996.52
2018-12-24T04:42:55.641Z,996.50
2018-12-24T04:43:55.685Z,996.54
2018-12-24T04:44:55.714Z,996.54
2018-12-24T04:45:55.749Z,996.60
2018-12-24T04:46:55.785Z,996.61
2018-12-24T04:47:55.825Z,996.64
2018-12-24T04:48:55.860Z,996.72
2018-12-24T04:49:55.895Z,996.69
2018-12-24T04:50:55.931Z,996.76
2018-12-24T04:51:55.967Z,996.78
2018-12-24T04:52:56.002Z,996.78
2018-12-24T04:53:56.039Z,996.81
2018-12-24T04:54:56.076Z,996.85
2018-12-24T04:55:56.111Z,996.92
2018-12-24T04:56:56.160Z,996.91
2018-12-24T04:57:56.184Z,996.98
2018-12-24T04:58:56.221Z,996.99
2018-12-24T04:59:56.257Z,996.98
2018-12-24T05:00:56.294Z,997.00
2018-12-24T05:01:56.335Z,997.03
2018-12-24T05:02:56.369Z,997.12
2018-12-24T05:03:56.408Z,997.13
2018-12-24T05:04:56.439Z,997.16
2018-12-24T05:05:56.474Z,997.28
2018-12-24T05:06:56.510Z,997.34
2018-12-24T05:07:56.549Z,997.38
2018-12-24T05:08:56.583Z,997.43
2018-12-24T05:09:56.619Z,997.46
2018-12-24T05:10:56.666Z,997.43
2018-12-24T05:11:56.694Z,997.52
2018-12-24T05:12:56.731Z,997.56
2018-12-24T05:13:56.766Z,997.56
2018-12-24T05:14:56.802Z,997.65
2018-12-24T05:15:56.844Z,997.69
2018-12-24T05:16:56.875Z,997.73
2018-12-24T05:17:56.911Z,997.80
2018-12-24T05:18:56.950Z,997.80
2018-12-24T05:19:56.983Z,997.89
2018-12-24T05:20:57.017Z,997.90
2018-12-24T05:21:57.055Z,997.99
2018-12-24T05:22:57.090Z,998.04
2018-12-24T05:23:57.128Z,998.04
2018-12-24T05:24:57.263Z,998.08
2018-12-24T05:25:57.199Z,998.12
2018-12-24T05:26:57.236Z,998.15
2018-12-24T05:27:57.273Z,998.29
2018-12-24T05:28:57.307Z,998.23
2018-12-24T05:29:57.344Z,998.35
2018-12-24T05:30:57.386Z,998.31
2018-12-24T05:31:57.446Z,998.44
2018-12-24T05:32:57.454Z,998.45
2018-12-24T05:33:57.491Z,998.46
2018-12-24T05:34:57.527Z,998.46
2018-12-24T05:35:57.565Z,998.49
2018-12-24T05:36:57.602Z,998.54
2018-12-24T05:37:57.645Z,998.52
2018-12-24T05:38:57.675Z,998.67
2018-12-24T05:39:57.709Z,998.63
2018-12-24T05:40:57.747Z,998.63
2018-12-24T05:41:57.782Z,998.67
2018-12-24T05:42:57.818Z,998.69
2018-12-24T05:43:57.856Z,998.73
2018-12-24T05:44:57.890Z,998.66
2018-12-24T05:45:57.927Z,998.88
2018-12-24T05:46:57.965Z,998.78
2018-12-24T05:47:58.001Z,998.80
2018-12-24T05:48:58.036Z,998.79
2018-12-24T05:49:58.071Z,998.87
2018-12-24T05:50:58.112Z,998.92
2018-12-24T05:51:58.145Z,999.01
2018-12-24T05:52:58.190Z,998.95
2018-12-24T05:53:58.217Z,998.99
2018-12-24T05:54:58.253Z,998.97
2018-12-24T05:55:58.290Z,999.03
2018-12-24T05:56:58.325Z,999.04
2018-12-24T05:57:58.363Z,999.06
2018-12-24T05:58:58.399Z,999.04
2018-12-24T05:59:58.435Z,999.05
2018-12-24T06:00:58.472Z,999.05
2018-12-24T06:01:58.511Z,999.03
2018-12-24T06:02:58.545Z,999.06
2018-12-24T06:03:58.581Z,999.18
2018-12-24T06:04:58.616Z,999.13
2018-12-24T06:05:58.654Z,999.23
2018-12-24T06:06:58.691Z,999.23
2018-12-24T06:07:58.727Z,999.30
2018-12-24T06:08:58.764Z,999.33
2018-12-24T06:09:58.807Z,999.35
2018-12-24T06:10:58.837Z,999.38
2018-12-24T06:11:58.871Z,999.32
2018-12-24T06:12:58.907Z,999.39
2018-12-24T06:13:58.948Z,999.42
2018-12-24T06:14:58.984Z,999.46
2018-12-24T06:15:59.020Z,999.48
2018-12-24T06:16:59.054Z,999.45
2018-12-24T06:17:59.099Z,999.52
2018-12-24T06:18:59.126Z,999.49
2018-12-24T06:19:59.165Z,999.54
2018-12-24T06:20:59.198Z,999.53
2018-12-24T06:21:59.233Z,999.58
2018-12-24T06:22:59.275Z,999.65
2018-12-24T06:23:59.308Z,999.60
2018-12-24T06:24:59.341Z,999.64
2018-12-24T06:25:59.380Z,999.74
2018-12-24T06:26:59.436Z,999.67
2018-12-24T06:27:59.453Z,999.70
2018-12-24T06:28:59.487Z,999.73
2018-12-24T06:29:59.526Z,999.73
2018-12-24T06:30:59.559Z,999.78
2018-12-24T06:31:59.597Z,999.81
2018-12-24T06:32:59.632Z,999.84
2018-12-24T06:33:59.668Z,999.91
2018-12-24T06:34:59.725Z,999.89
2018-12-24T06:35:59.791Z,999.94
2018-12-24T06:36:59.777Z,999.99
2018-12-24T06:37:59.812Z,1000.06
2018-12-24T06:38:59.852Z,1000.08
2018-12-24T06:39:59.886Z,1000.06
2018-12-24T06:41:00.024Z,1000.09
2018-12-24T06:41:59.959Z,1000.14
2018-12-24T06:43:00.098Z,1000.17
2018-12-24T06:44:06.728Z,1000.24
2018-12-24T06:45:00.086Z,1000.27
2018-12-24T06:46:00.110Z,1000.29
2018-12-24T06:47:00.150Z,1000.35
2018-12-24T06:48:00.178Z,1000.32
2018-12-24T06:49:00.214Z,1000.39
2018-12-24T06:50:00.249Z,1000.39
2018-12-24T06:51:00.285Z,1000.45
2018-12-24T06:52:00.324Z,1000.51
2018-12-24T06:53:00.360Z,1000.49
2018-12-24T06:54:00.396Z,1000.57
2018-12-24T06:55:00.432Z,1000.66
2018-12-24T06:56:00.467Z,1000.65
2018-12-24T06:57:00.504Z,1000.68
2018-12-24T06:58:00.541Z,1000.68
2018-12-24T06:59:00.577Z,1000.72
2018-12-24T07:00:00.612Z,1000.73
2018-12-24T07:01:00.648Z,1000.79
2018-12-24T07:02:00.685Z,1000.80
2018-12-24T07:03:00.722Z,1000.87
2018-12-24T07:04:00.773Z,1000.91
2018-12-24T07:05:00.793Z,1000.91
2018-12-24T07:06:00.830Z,1000.94
2018-12-24T07:07:00.865Z,1001.02
2018-12-24T07:08:00.903Z,1000.96
2018-12-24T07:09:00.988Z,1001.07
2018-12-24T07:10:00.977Z,1001.07
2018-12-24T07:11:01.013Z,1001.10
2018-12-24T07:12:01.049Z,1001.17
2018-12-24T07:13:01.084Z,1001.15
2018-12-24T07:14:01.144Z,1001.22
2018-12-24T07:15:01.166Z,1001.21
2018-12-24T07:16:01.195Z,1001.24
2018-12-24T07:17:01.231Z,1001.23
2018-12-24T07:18:01.275Z,1001.29
2018-12-24T07:19:01.304Z,1001.31
2018-12-24T07:20:01.342Z,1001.34
2018-12-24T07:21:01.376Z,1001.33
2018-12-24T07:22:01.413Z,1001.35
2018-12-24T07:23:01.449Z,1001.37
2018-12-24T07:24:01.485Z,1001.38
2018-12-24T07:25:01.529Z,1001.44
2018-12-24T07:26:01.563Z,1001.46
2018-12-24T07:27:01.600Z,1001.47
2018-12-24T07:28:01.632Z,1001.52
2018-12-24T07:29:01.667Z,1001.59
2018-12-24T07:30:01.746Z,1001.57
2018-12-24T07:31:01.739Z,1001.61
2018-12-24T07:32:01.775Z,1001.59
2018-12-24T07:33:01.822Z,1001.67
2018-12-24T07:34:01.847Z,1001.63
2018-12-24T07:35:01.886Z,1001.68
2018-12-24T07:36:01.924Z,1001.63
2018-12-24T07:37:01.956Z,1001.61
2018-12-24T07:38:03.121Z,1001.62
2018-12-24T07:39:02.030Z,1001.60
2018-12-24T07:40:02.066Z,1001.70
2018-12-24T07:41:02.101Z,1001.67
2018-12-24T07:42:02.238Z,1001.70
2018-12-24T07:43:02.175Z,1001.71
2018-12-24T07:44:02.211Z,1001.72
2018-12-24T07:45:02.248Z,1001.77
2018-12-24T07:46:02.285Z,1001.79
2018-12-24T07:47:02.320Z,1001.82
2018-12-24T07:48:02.358Z,1001.81
2018-12-24T07:49:02.393Z,1001.88
2018-12-24T07:50:02.437Z,1001.89
2018-12-24T07:51:02.466Z,1001.89
2018-12-24T07:52:02.506Z,1001.89
2018-12-24T07:53:02.545Z,1001.93
2018-12-24T07:54:02.584Z,1001.95
2018-12-24T07:55:02.613Z,1001.99
2018-12-24T07:56:02.650Z,1002.02
2018-12-24T07:57:02.694Z,1002.11
2018-12-24T07:58:02.721Z,1002.06
2018-12-24T07:59:02.768Z,1002.10
2018-12-24T08:00:02.795Z,1002.17
2018-12-24T08:01:02.832Z,1002.16
2018-12-24T08:02:02.868Z,1002.21
2018-12-24T08:03:02.905Z,1002.23
2018-12-24T08:04:02.942Z,1002.22
2018-12-24T08:05:02.977Z,1002.23
2018-12-24T08:06:03.014Z,1002.28
2018-12-24T08:07:03.052Z,1002.29
2018-12-24T08:08:03.087Z,1002.31
2018-12-24T08:09:03.121Z,1002.32
2018-12-24T08:10:03.159Z,1002.35
2018-12-24T08:11:03.197Z,1002.35
2018-12-24T08:12:03.234Z,1002.37
2018-12-24T08:13:03.370Z,1002.38
2018-12-24T08:14:03.306Z,1002.41
2018-12-24T08:15:03.342Z,1002.45
2018-12-24T08:16:03.378Z,1002.49
2018-12-24T08:17:03.415Z,1002.54
2018-12-24T08:18:03.461Z,1002.55
2018-12-24T08:19:03.489Z,1002.62
2018-12-24T08:20:03.527Z,1002.63
2018-12-24T08:21:03.563Z,1002.65
2018-12-24T08:22:03.598Z,1002.72
2018-12-24T08:23:03.637Z,1002.71
2018-12-24T08:24:03.687Z,1002.75
2018-12-24T08:25:03.706Z,1002.77
2018-12-24T08:26:03.744Z,1002.81
2018-12-24T08:27:03.783Z,1002.80
2018-12-24T08:28:03.820Z,1002.85
2018-12-24T08:29:03.857Z,1002.79
2018-12-24T08:30:03.892Z,1002.80
2018-12-24T08:31:03.930Z,1002.82
2018-12-24T08:32:03.971Z,1002.87
2018-12-24T08:33:04.009Z,1002.85
2018-12-24T08:34:04.044Z,1002.82
2018-12-24T08:35:04.075Z,1002.83
2018-12-24T08:36:04.113Z,1002.89
2018-12-24T08:37:04.148Z,1002.94
2018-12-24T08:38:04.184Z,1002.94
2018-12-24T08:39:04.238Z,1002.94
2018-12-24T08:40:04.258Z,1003.00
2018-12-24T08:41:04.303Z,1002.99
2018-12-24T08:42:04.332Z,1002.98
2018-12-24T08:43:04.369Z,1003.02
2018-12-24T08:44:04.405Z,1003.09
2018-12-24T08:45:04.450Z,1003.08
2018-12-24T08:46:04.478Z,1003.10
2018-12-24T08:47:04.525Z,1003.11
2018-12-24T08:48:04.552Z,1003.12
2018-12-24T08:49:04.590Z,1003.16
2018-12-24T08:50:04.624Z,1003.20
2018-12-24T08:51:04.661Z,1003.24
2018-12-24T08:52:04.699Z,1003.31
2018-12-24T08:53:04.737Z,1003.28
2018-12-24T08:54:04.780Z,1003.34
2018-12-24T08:55:04.811Z,1003.34
2018-12-24T08:56:04.848Z,1003.36
2018-12-24T08:57:04.893Z,1003.35
2018-12-24T08:58:04.921Z,1003.40
2018-12-24T08:59:04.955Z,1003.44
2018-12-24T09:00:04.995Z,1003.47
2018-12-24T09:01:05.032Z,1003.48
2018-12-24T09:02:05.068Z,1003.50
2018-12-24T09:03:05.112Z,1003.54
2018-12-24T09:04:05.144Z,1003.54
2018-12-24T09:05:05.193Z,1003.54
2018-12-24T09:06:05.214Z,1003.56
2018-12-24T09:07:05.263Z,1003.60
2018-12-24T09:08:05.286Z,1003.61
2018-12-24T09:09:05.325Z,1003.63
2018-12-24T09:10:05.459Z,1003.62
2018-12-24T09:11:05.406Z,1003.63
2018-12-24T09:12:05.444Z,1003.63
2018-12-24T09:13:05.472Z,1003.66
2018-12-24T09:14:05.507Z,1003.64
2018-12-24T09:15:05.553Z,1003.68
2018-12-24T09:16:05.582Z,1003.69
2018-12-24T09:17:05.618Z,1003.67
2018-12-24T09:18:05.654Z,1003.66
2018-12-24T09:19:05.691Z,1003.70
2018-12-24T09:20:05.730Z,1003.76
2018-12-24T09:21:05.771Z,1003.72
2018-12-24T09:22:05.804Z,1003.79
2018-12-24T09:23:05.842Z,1003.79
2018-12-24T09:24:05.877Z,1003.78
2018-12-24T09:25:05.920Z,1003.74
2018-12-24T09:26:05.957Z,1003.77
2018-12-24T09:27:05.993Z,1003.78
2018-12-24T09:28:06.023Z,1003.81
2018-12-24T09:29:06.064Z,1003.77
2018-12-24T09:30:06.097Z,1003.81
2018-12-24T09:31:06.141Z,1003.85
2018-12-24T09:32:06.169Z,1003.84
2018-12-24T09:33:06.217Z,1003.84
2018-12-24T09:34:06.258Z,1003.83
2018-12-24T09:35:06.282Z,1003.93
2018-12-24T09:36:06.469Z,1004.01
2018-12-24T09:37:06.355Z,1003.99
2018-12-24T09:38:06.401Z,1003.98
2018-12-24T09:39:06.429Z,1004.02
2018-12-24T09:40:06.465Z,1004.00
2018-12-24T09:41:06.500Z,1004.00
2018-12-24T09:42:06.548Z,1004.05
2018-12-24T09:43:06.575Z,1004.04
2018-12-24T09:44:06.619Z,1004.05
2018-12-24T09:45:06.654Z,1004.01
2018-12-24T09:46:06.693Z,1004.09
2018-12-24T09:47:06.721Z,1004.07
2018-12-24T09:48:06.767Z,1004.05
2018-12-24T09:49:06.794Z,1004.08
2018-12-24T09:50:06.833Z,1004.12
2018-12-24T09:51:06.868Z,1004.11
2018-12-24T09:52:06.905Z,1004.15
2018-12-24T09:53:06.947Z,1004.17
2018-12-24T09:54:06.979Z,1004.23
2018-12-24T09:55:07.017Z,1004.29
2018-12-24T09:56:07.054Z,1004.28
2018-12-24T09:57:07.090Z,1004.29
2018-12-24T09:58:07.136Z,1004.28
2018-12-24T09:59:07.163Z,1004.29
2018-12-24T10:00:07.208Z,1004.29
2018-12-24T10:01:07.236Z,1004.29
2018-12-24T10:02:07.294Z,1004.32
2018-12-24T10:03:07.310Z,1004.34
2018-12-24T10:04:07.347Z,1004.38
2018-12-24T10:05:07.386Z,1004.42
2018-12-24T10:06:07.422Z,1004.43
2018-12-24T10:07:07.458Z,1004.43
2018-12-24T10:08:07.494Z,1004.43
2018-12-24T10:09:07.540Z,1004.42
2018-12-24T10:10:07.568Z,1004.47
2018-12-24T10:11:07.604Z,1004.50
2018-12-24T10:12:07.642Z,1004.45
2018-12-24T10:13:07.679Z,1004.50
2018-12-24T10:14:07.728Z,1004.49
2018-12-24T10:15:08.237Z,1004.48
2018-12-24T10:16:07.787Z,1004.52
2018-12-24T10:17:07.832Z,1004.49
2018-12-24T10:18:07.862Z,1004.51
2018-12-24T10:19:07.903Z,1004.58
2018-12-24T10:20:07.938Z,1004.58
2018-12-24T10:21:07.972Z,1004.62
2018-12-24T10:22:08.010Z,1004.59
2018-12-24T10:23:08.046Z,1004.66
2018-12-24T10:24:08.088Z,1004.64
2018-12-24T10:25:08.119Z,1004.69
2018-12-24T10:26:08.156Z,1004.67
2018-12-24T10:27:08.195Z,1004.65
2018-12-24T10:28:08.240Z,1004.64
2018-12-24T10:29:08.267Z,1004.66
2018-12-24T10:30:08.311Z,1004.64
2018-12-24T10:31:08.341Z,1004.69
2018-12-24T10:32:08.379Z,1004.75
2018-12-24T10:33:08.427Z,1004.74
2018-12-24T10:34:08.451Z,1004.76
2018-12-24T10:35:08.487Z,1004.77
2018-12-24T10:36:08.526Z,1004.82
2018-12-24T10:37:08.561Z,1004.91
2018-12-24T10:38:08.602Z,1004.89
2018-12-24T10:39:08.636Z,1004.90
2018-12-24T10:40:08.861Z,1004.91
2018-12-24T10:41:08.721Z,1004.97
2018-12-24T10:42:08.747Z,1004.99
2018-12-24T10:43:08.791Z,1004.95
2018-12-24T10:44:08.830Z,1004.97
2018-12-24T10:45:16.255Z,1004.94
2018-12-24T10:46:08.903Z,1005.03
2018-12-24T10:47:08.934Z,1005.08
2018-12-24T10:48:08.968Z,1005.16
2018-12-24T10:49:09.003Z,1005.12
2018-12-24T10:50:09.041Z,1005.14
2018-12-24T10:51:09.077Z,1005.18
2018-12-24T10:52:09.115Z,1005.16
2018-12-24T10:53:09.154Z,1005.18
2018-12-24T10:54:09.186Z,1005.17
2018-12-24T10:55:09.226Z,1005.21
2018-12-24T10:56:09.265Z,1005.21
2018-12-24T10:57:09.312Z,1005.23
2018-12-24T10:58:09.334Z,1005.27
2018-12-24T10:59:09.379Z,1005.24
2018-12-24T11:00:09.409Z,1005.28
2018-12-24T11:01:09.444Z,1005.30
2018-12-24T11:02:09.480Z,1005.30
2018-12-24T11:03:09.516Z,1005.31
2018-12-24T11:04:09.552Z,1005.32
2018-12-24T11:05:09.588Z,1005.32
2018-12-24T11:06:09.636Z,1005.33
2018-12-24T11:07:09.669Z,1005.31
2018-12-24T11:08:09.699Z,1005.33
2018-12-24T11:09:09.734Z,1005.35
2018-12-24T11:10:09.771Z,1005.38
2018-12-24T11:11:09.900Z,1005.40
2018-12-24T11:12:09.844Z,1005.44
2018-12-24T11:13:09.880Z,1005.47
2018-12-24T11:14:09.928Z,1005.49
2018-12-24T11:15:09.953Z,1005.47
2018-12-24T11:16:09.992Z,1005.47
2018-12-24T11:17:10.025Z,1005.46
2018-12-24T11:18:10.063Z,1005.47
2018-12-24T11:19:10.099Z,1005.50
2018-12-24T11:20:10.135Z,1005.52
2018-12-24T11:21:10.178Z,1005.49
2018-12-24T11:22:10.227Z,1005.55
2018-12-24T11:23:10.244Z,1005.55
2018-12-24T11:24:10.279Z,1005.56
2018-12-24T11:25:10.315Z,1005.55
2018-12-24T11:26:10.352Z,1005.54
2018-12-24T11:27:10.392Z,1005.57
2018-12-24T11:28:10.425Z,1005.55
2018-12-24T11:29:10.463Z,1005.52
2018-12-24T11:30:10.499Z,1005.54
2018-12-24T11:31:10.534Z,1005.52
2018-12-24T11:32:10.571Z,1005.55
2018-12-24T11:33:10.607Z,1005.58
2018-12-24T11:34:10.643Z,1005.62
2018-12-24T11:35:10.681Z,1005.59
2018-12-24T11:36:10.720Z,1005.58
2018-12-24T11:37:10.752Z,1005.62
2018-12-24T11:38:10.796Z,1005.60
2018-12-24T11:39:10.824Z,1005.58
2018-12-24T11:40:10.862Z,1005.59
2018-12-24T11:41:10.899Z,1005.61
2018-12-24T11:42:10.942Z,1005.62
2018-12-24T11:43:10.972Z,1005.67
2018-12-24T11:44:11.011Z,1005.62
2018-12-24T11:45:11.044Z,1005.65
2018-12-24T11:46:11.083Z,1005.66
2018-12-24T11:47:11.119Z,1005.65
2018-12-24T11:48:11.157Z,1005.59
2018-12-24T11:49:11.200Z,1005.60
2018-12-24T11:50:11.229Z,1005.56
2018-12-24T11:51:11.266Z,1005.63
2018-12-24T11:52:11.301Z,1005.61
2018-12-24T11:53:11.339Z,1005.63
2018-12-24T11:54:11.374Z,1005.63
2018-12-24T11:55:11.410Z,1005.60
2018-12-24T11:56:11.450Z,1005.62
2018-12-24T11:57:11.485Z,1005.65
2018-12-24T11:58:13.283Z,1005.66
2018-12-24T11:59:11.557Z,1005.69
2018-12-24T12:00:11.645Z,1005.68
2018-12-24T12:01:11.630Z,1005.67
2018-12-24T12:02:11.675Z,1005.70
2018-12-24T12:03:12.802Z,1005.71
2018-12-24T12:04:11.743Z,1005.68
2018-12-24T12:05:11.777Z,1005.66
2018-12-24T12:06:19.499Z,1005.74
2018-12-24T12:07:11.852Z,1005.73
2018-12-24T12:08:11.887Z,1005.77
2018-12-24T12:09:11.926Z,1005.76
2018-12-24T12:10:11.961Z,1005.75
2018-12-24T12:11:12.000Z,1005.75
2018-12-24T12:12:12.036Z,1005.77
2018-12-24T12:13:12.073Z,1005.86
2018-12-24T12:14:12.108Z,1005.90
2018-12-24T12:15:13.076Z,1005.91
2018-12-24T12:16:12.188Z,1005.93
2018-12-24T12:17:12.219Z,1005.95
2018-12-24T12:18:12.255Z,1005.93